Time;durP1;ratioP1;P1;durP2;ratioP2;P2;SDS_P1;SDS_P2;PMS_P1;PMS_P2;Temp;Humidity;BMP_temperature;BMP_pressure;BME280_temperature;BME280_humidity;BME280_pressure;Samples;Min_cycle;Max_cycle;Signal;HPM_P1;HPM_P2
2022/02/02 00:01:19;;;;;;;6.33;1.63;;;7.00;99.90;;;;;;5011878;28;20464;-71
2022/02/02 00:03:50;;;;;;;3.20;1.53;;;7.00;99.90;;;;;;5029080;28;20227;-71
2022/02/02 00:06:30;;;;;;;10.20;2.10;;;7.00;99.90;;;;;;5028536;28;20461;-70
2022/02/02 00:09:01;;;;;;;1.73;1.47;;;7.00;99.90;;;;;;5011294;28;20546;-70
2022/02/02 00:13:58;;;;;;;2.10;1.87;;;7.00;99.90;;;;;;5028965;28;20479;-72
2022/02/02 00:16:45;;;;;;;7.67;2.20;;;7.00;99.90;;;;;;5029779;28;20451;-71
2022/02/02 00:22:16;;;;;;;9.83;2.20;;;7.00;99.90;;;;;;4995859;28;20462;-71
2022/02/02 00:27:16;;;;;;;1.93;1.73;;;7.00;99.90;;;;;;5011486;28;20470;-71
2022/02/02 00:29:50;;;;;;;9.63;2.27;;;7.00;99.90;;;;;;5011144;28;20463;-71
2022/02/02 00:32:52;;;;;;;;;;;;;;;;;;;;;
2022/02/02 00:34:59;;;;;;;5.27;2.70;;;7.00;99.90;;;;;;5029436;28;20535;-71
2022/02/02 00:37:26;;;;;;;6.33;2.23;;;7.00;99.90;;;;;;5016795;28;20541;-72
2022/02/02 00:39:51;;;;;;;5.07;2.70;;;7.00;99.90;;;;;;5020516;28;20282;-71
2022/02/02 00:42:17;;;;;;;2.60;1.73;;;7.00;99.90;;;;;;5015059;28;20459;-71
2022/02/02 00:44:48;;;;;;;6.27;1.93;;;7.00;99.90;;;;;;5021245;28;20208;-71
2022/02/02 00:47:20;;;;;;;6.27;1.67;;;7.00;99.90;;;;;;5032073;28;20224;-71
2022/02/02 00:49:48;;;;;;;5.13;1.80;;;7.00;99.90;;;;;;5014996;28;20505;-72
2022/02/02 00:52:14;;;;;;;7.60;2.67;;;7.00;99.90;;;;;;5031304;28;20444;-71
2022/02/02 00:54:40;;;;;;;5.20;2.10;;;7.10;99.90;;;;;;5034585;28;20447;-70
2022/02/02 00:57:06;;;;;;;5.17;2.30;;;7.10;99.90;;;;;;5015129;28;20485;-71
2022/02/02 00:59:31;;;;;;;9.00;2.90;;;7.00;99.90;;;;;;5033094;28;20262;-71
2022/02/02 01:01:57;;;;;;;11.47;3.23;;;7.00;99.90;;;;;;5016557;28;20303;-71
2022/02/02 01:04:23;;;;;;;8.83;2.23;;;7.00;99.90;;;;;;5034416;28;20232;-71
2022/02/02 01:07:02;;;;;;;9.77;3.10;;;7.00;99.90;;;;;;5014840;28;20282;-71
2022/02/02 01:09:34;;;;;;;4.43;2.03;;;7.00;99.90;;;;;;5015131;28;20213;-71
2022/02/02 01:28:14;;;;;;;7.33;1.73;;;6.80;99.90;;;;;;5031618;28;20463;-72
2022/02/02 01:30:40;;;;;;;2.97;1.90;;;6.80;99.90;;;;;;5032516;28;20455;-71
2022/02/02 01:33:07;;;;;;;7.47;2.03;;;6.90;99.90;;;;;;5031635;28;20227;-71
2022/02/02 01:35:33;;;;;;;7.23;2.13;;;6.80;99.90;;;;;;5016528;28;20647;-71
2022/02/02 01:37:58;;;;;;;1.20;0.80;;;6.80;99.90;;;;;;5013851;28;20459;-71
2022/02/02 01:40:30;;;;;;;2.27;1.47;;;6.80;99.90;;;;;;5031174;28;20267;-71
2022/02/02 01:43:04;;;;;;;6.23;2.00;;;6.80;99.90;;;;;;5031807;28;20223;-71
2022/02/02 01:45:41;;;;;;;6.17;2.07;;;6.80;99.90;;;;;;5019939;28;20458;-71
2022/02/02 01:55:59;;;;;;;7.63;2.63;;;6.70;99.90;;;;;;5013821;28;20463;-71
2022/02/02 02:00:53;;;;;;;8.70;2.20;;;6.80;99.90;;;;;;5019721;28;20502;-71
2022/02/02 02:03:19;;;;;;;10.80;2.27;;;6.80;99.90;;;;;;5034802;28;20544;-70
2022/02/02 02:05:44;;;;;;;4.50;2.43;;;6.80;99.90;;;;;;5030138;28;20221;-69
2022/02/02 02:08:10;;;;;;;6.97;2.10;;;6.80;99.90;;;;;;5013805;28;20232;-69
2022/02/02 02:10:36;;;;;;;9.20;2.50;;;6.80;99.90;;;;;;5032842;28;20451;-69
2022/02/02 02:13:11;;;;;;;5.83;3.00;;;6.80;99.90;;;;;;5014351;28;20725;-69
2022/02/02 02:15:37;;;;;;;3.20;2.50;;;6.80;99.90;;;;;;5007344;28;20216;-69
2022/02/02 02:18:04;;;;;;;7.83;2.57;;;6.80;99.90;;;;;;5016656;28;20455;-69
2022/02/02 02:20:30;;;;;;;6.20;2.20;;;6.80;99.90;;;;;;5017565;28;20455;-69
2022/02/02 02:22:56;;;;;;;4.90;1.93;;;6.90;99.90;;;;;;4996566;28;20475;-69
2022/02/02 02:25:26;;;;;;;6.17;2.93;;;6.90;99.90;;;;;;5031476;28;20828;-69
2022/02/02 02:27:54;;;;;;;3.80;3.00;;;6.90;99.90;;;;;;4998588;28;20541;-68
2022/02/02 02:30:43;;;;;;;4.10;2.53;;;6.90;99.90;;;;;;5030232;28;20451;-69
2022/02/02 02:33:30;;;;;;;16.77;3.60;;;6.90;99.90;;;;;;5013302;28;20472;-68
2022/02/02 02:36:24;;;;;;;5.27;2.60;;;6.90;99.90;;;;;;5012964;28;20479;-69
2022/02/02 02:57:58;;;;;;;9.47;3.10;;;6.90;99.90;;;;;;5004704;28;20451;-70
2022/02/02 03:00:50;;;;;;;8.90;2.80;;;6.90;99.90;;;;;;5011484;28;21038;-69
2022/02/02 03:30:03;;;;;;;4.00;2.30;;;6.90;99.90;;;;;;5009728;28;20972;-69
2022/02/02 03:34:38;;;;;;;5.97;2.67;;;6.90;99.90;;;;;;5018138;28;20459;-69
2022/02/02 03:59:59;;;;;;;5.53;2.73;;;6.90;99.90;;;;;;5029041;28;21059;-69
2022/02/02 04:07:53;;;;;;;3.30;2.17;;;6.90;99.90;;;;;;5022740;28;20470;-69
2022/02/02 04:10:19;;;;;;;5.03;2.00;;;6.90;99.90;;;;;;5014235;28;20455;-69
2022/02/02 04:12:54;;;;;;;;;;;;;;;;;;;;;
2022/02/02 04:56:42;;;;;;;12.23;2.53;;;6.70;99.90;;;;;;5033020;28;20457;-69
2022/02/02 05:07:26;;;;;;;8.87;1.90;;;6.60;99.90;;;;;;4967729;28;20563;-69
2022/02/02 05:53:06;;;;;;;8.10;3.57;;;6.50;99.90;;;;;;5019027;28;20520;-67
2022/02/02 05:55:34;;;;;;;11.37;3.43;;;6.50;99.90;;;;;;5031676;28;21020;-69
2022/02/02 05:58:01;;;;;;;10.70;3.17;;;6.50;99.90;;;;;;5010344;28;20220;-69
2022/02/02 06:00:28;;;;;;;7.30;2.77;;;6.50;99.90;;;;;;5030138;28;20860;-68
2022/02/02 06:02:58;;;;;;;10.63;2.63;;;6.50;99.90;;;;;;5012969;28;20463;-69
2022/02/02 06:05:27;;;;;;;9.63;3.60;;;6.50;99.90;;;;;;5031718;28;20463;-70
2022/02/02 06:07:55;;;;;;;10.50;2.30;;;6.50;99.90;;;;;;5013956;28;20474;-69
2022/02/02 06:10:23;;;;;;;14.07;2.60;;;6.50;99.90;;;;;;5012258;28;20842;-67
2022/02/02 06:12:52;;;;;;;6.93;2.17;;;6.50;99.90;;;;;;5030902;28;20597;-68
2022/02/02 06:15:18;;;;;;;4.63;2.40;;;6.50;99.90;;;;;;5014023;28;20449;-68
2022/02/02 06:17:49;;;;;;;8.40;2.53;;;6.50;99.90;;;;;;5013403;28;20459;-68
2022/02/02 06:20:16;;;;;;;4.97;2.63;;;6.50;99.90;;;;;;5031677;28;20455;-69
2022/02/02 06:22:46;;;;;;;3.80;2.53;;;6.50;99.90;;;;;;5013601;28;20455;-67
2022/02/02 06:25:31;;;;;;;6.90;3.10;;;6.50;99.90;;;;;;5013329;28;20459;-69
2022/02/02 06:28:03;;;;;;;10.07;3.87;;;6.50;99.90;;;;;;5013672;28;20473;-69
2022/02/02 06:30:30;;;;;;;13.77;3.27;;;6.50;99.90;;;;;;5030896;28;20994;-68
2022/02/02 06:33:08;;;;;;;5.00;2.67;;;6.60;99.90;;;;;;5012221;28;20530;-68
2022/02/02 06:35:35;;;;;;;15.53;3.13;;;6.60;99.90;;;;;;5012402;28;20455;-69
2022/02/02 06:38:01;;;;;;;15.53;3.30;;;6.60;99.90;;;;;;5026921;28;20447;-69
2022/02/02 06:40:27;;;;;;;10.90;2.50;;;6.60;99.90;;;;;;5028187;28;20466;-69
2022/02/02 06:42:53;;;;;;;6.47;2.80;;;6.60;99.90;;;;;;4991531;28;20905;-69
2022/02/02 06:45:19;;;;;;;11.80;2.77;;;6.60;99.90;;;;;;5009000;28;20548;-69
2022/02/02 06:47:47;;;;;;;4.70;2.20;;;6.60;99.90;;;;;;5025655;28;20224;-68
2022/02/02 06:50:26;;;;;;;14.00;4.00;;;6.50;99.90;;;;;;4993399;28;20542;-70
2022/02/02 06:53:22;;;;;;;6.20;2.87;;;6.50;99.90;;;;;;5025875;28;20979;-70
2022/02/02 06:56:39;;;;;;;10.43;3.10;;;6.50;99.90;;;;;;5009930;28;20452;-70
2022/02/02 07:13:23;;;;;;;13.03;3.47;;;6.50;99.90;;;;;;5026563;28;20448;-69
2022/02/02 07:16:10;;;;;;;7.00;2.93;;;6.50;99.90;;;;;;5010782;28;20968;-68
2022/02/02 07:29:19;;;;;;;5.03;2.70;;;6.50;99.90;;;;;;5020972;28;20586;-70
2022/02/02 07:32:07;;;;;;;6.40;2.80;;;6.50;99.90;;;;;;5020716;28;20465;-70
2022/02/02 07:37:32;;;;;;;19.57;2.80;;;6.50;99.90;;;;;;5028095;28;20548;-70
2022/02/02 07:40:02;;;;;;;9.30;3.30;;;6.50;99.90;;;;;;5010031;28;20827;-69
2022/02/02 07:42:29;;;;;;;10.50;3.30;;;6.50;99.90;;;;;;5007125;28;20474;-70
2022/02/02 07:45:03;;;;;;;5.70;3.20;;;6.50;99.90;;;;;;5016298;28;20459;-70
2022/02/02 07:47:32;;;;;;;8.37;2.53;;;6.50;99.90;;;;;;5026466;28;20469;-70
2022/02/02 07:50:02;;;;;;;13.10;3.10;;;6.50;99.90;;;;;;5008941;28;20538;-68
2022/02/02 07:52:30;;;;;;;15.80;3.20;;;6.50;99.90;;;;;;5023905;28;20463;-69
2022/02/02 07:54:58;;;;;;;7.83;3.60;;;6.50;99.90;;;;;;5007772;28;20506;-68
2022/02/02 07:57:27;;;;;;;8.93;3.47;;;6.50;99.90;;;;;;5008667;28;20828;-68
2022/02/02 07:59:59;;;;;;;7.10;3.10;;;6.50;99.90;;;;;;5024795;28;20530;-69
2022/02/02 08:02:50;;;;;;;12.13;3.03;;;6.50;99.90;;;;;;5012128;28;20551;-69
2022/02/02 08:05:14;;;;;;;16.43;3.70;;;6.60;99.90;;;;;;5020967;28;20479;-69
2022/02/02 08:07:46;;;;;;;7.07;2.77;;;6.60;99.90;;;;;;5011952;28;21003;-70
2022/02/02 08:10:15;;;;;;;14.77;3.00;;;6.60;99.90;;;;;;5020533;28;20478;-69
2022/02/02 08:12:48;;;;;;;12.07;3.50;;;6.60;99.90;;;;;;5027747;28;20463;-69
2022/02/02 08:15:16;;;;;;;8.00;3.67;;;6.60;99.90;;;;;;5026723;28;20478;-70
2022/02/02 08:17:44;;;;;;;8.50;2.77;;;6.60;99.90;;;;;;5010080;28;20457;-71
2022/02/02 08:20:10;;;;;;;6.50;2.50;;;6.60;99.90;;;;;;5023549;28;20831;-69
2022/02/02 08:22:38;;;;;;;6.13;3.20;;;6.60;99.90;;;;;;5025832;28;20463;-69
2022/02/02 08:25:06;;;;;;;9.50;2.60;;;6.60;99.90;;;;;;5008570;28;20448;-68
2022/02/02 08:27:38;;;;;;;4.90;2.33;;;6.60;99.90;;;;;;5009687;28;20482;-68
2022/02/02 08:30:10;;;;;;;8.17;3.00;;;6.60;99.90;;;;;;5006653;28;20463;-70
2022/02/02 08:32:44;;;;;;;13.40;3.53;;;6.70;99.90;;;;;;5019529;28;20835;-68
2022/02/02 08:35:11;;;;;;;13.63;4.40;;;6.70;99.90;;;;;;5008416;28;20455;-70
2022/02/02 08:37:41;;;;;;;10.23;3.27;;;6.70;99.90;;;;;;5008678;28;20574;-70
2022/02/02 08:40:25;;;;;;;7.60;3.40;;;6.70;99.90;;;;;;5026319;28;20454;-69
2022/02/02 08:42:52;;;;;;;7.70;2.83;;;6.70;99.90;;;;;;5027042;28;20466;-68
2022/02/02 08:45:23;;;;;;;5.50;2.90;;;6.70;99.90;;;;;;5027304;28;20472;-69
2022/02/02 08:47:59;;;;;;;12.97;4.17;;;6.80;99.90;;;;;;5026099;28;20536;-68
2022/02/02 08:50:35;;;;;;;14.10;4.07;;;6.80;99.90;;;;;;5013186;28;20936;-69
2022/02/02 08:53:11;;;;;;;9.03;3.70;;;6.80;99.90;;;;;;5023931;28;20526;-68
2022/02/02 08:56:00;;;;;;;;;;;;;;;;;;;;;
2022/02/02 09:01:02;;;;;;;6.10;3.00;;;6.90;99.90;;;;;;5013001;28;20467;-69
2022/02/02 09:06:15;;;;;;;8.57;4.50;;;7.00;99.90;;;;;;5001256;28;20459;-70
2022/02/02 09:08:43;;;;;;;15.03;3.17;;;7.00;99.90;;;;;;5025359;28;20514;-68
2022/02/02 09:33:51;;;;;;;12.40;3.90;;;7.40;99.90;;;;;;5026882;28;20880;-70
2022/02/02 09:35:30;;;;;;;5.37;2.57;;;7.40;99.90;;;;;;4994442;28;20463;-70
2022/02/02 09:37:56;;;;;;;6.93;2.37;;;7.40;99.90;;;;;;4999574;28;20452;-69
2022/02/02 09:43:12;;;;;;;9.97;2.93;;;7.40;99.90;;;;;;5024886;28;20319;-70
2022/02/02 09:45:39;;;;;;;5.60;3.67;;;7.40;99.90;;;;;;5012786;28;20467;-71
2022/02/02 09:48:12;;;;;;;5.83;1.97;;;7.40;99.90;;;;;;5011687;28;20674;-70
2022/02/02 09:50:47;;;;;;;10.40;2.93;;;7.40;99.90;;;;;;5027791;28;20991;-69
2022/02/02 09:53:21;;;;;;;13.60;3.83;;;7.50;99.90;;;;;;4995970;28;21092;-69
2022/02/02 09:56:08;;;;;;;7.00;2.80;;;7.50;99.90;;;;;;5036210;28;20487;-68
2022/02/02 10:10:22;;;;;;;10.40;2.33;;;7.60;99.90;;;;;;5015699;28;21071;-68
2022/02/02 10:15:29;;;;;;;4.20;2.70;;;7.60;99.90;;;;;;5027517;28;20485;-70
2022/02/02 10:17:57;;;;;;;9.03;2.20;;;7.70;99.90;;;;;;5026112;28;20451;-69
2022/02/02 10:20:27;;;;;;;15.73;3.00;;;7.70;99.90;;;;;;5016901;28;20450;-70
2022/02/02 10:22:57;;;;;;;4.40;2.10;;;7.70;99.90;;;;;;5028023;28;20868;-70
2022/02/02 10:25:28;;;;;;;3.83;1.80;;;7.70;99.90;;;;;;5011756;28;20443;-69
2022/02/02 10:28:12;;;;;;;4.87;2.27;;;7.80;99.90;;;;;;5013530;28;21027;-68
2022/02/02 10:30:41;;;;;;;5.63;1.50;;;7.80;99.90;;;;;;5017264;28;20447;-69
2022/02/02 10:33:34;;;;;;;14.10;3.03;;;7.80;99.90;;;;;;5008103;28;20558;-70
2022/02/02 10:36:27;;;;;;;3.10;1.87;;;7.80;99.90;;;;;;5019633;28;20546;-70
2022/02/02 10:39:07;;;;;;;6.47;1.90;;;7.90;99.90;;;;;;5007335;28;20531;-71
2022/02/02 10:41:46;;;;;;;7.90;2.00;;;7.90;99.90;;;;;;5009561;28;20464;-70
2022/02/02 10:44:39;;;;;;;4.97;2.47;;;7.90;99.90;;;;;;5006303;28;20542;-69
2022/02/02 10:47:31;;;;;;;3.83;1.67;;;7.90;99.90;;;;;;5005412;28;20859;-70
2022/02/02 10:50:29;;;;;;;11.57;2.73;;;7.90;99.90;;;;;;5010200;28;20531;-69
2022/02/02 11:00:55;;;;;;;6.37;2.40;;;8.00;99.90;;;;;;5008614;28;20217;-70
2022/02/02 11:08:51;;;;;;;7.33;1.90;;;8.10;99.90;;;;;;5023023;28;20473;-68
2022/02/02 11:11:18;;;;;;;4.80;2.40;;;8.10;99.90;;;;;;5026243;28;21066;-70
2022/02/02 11:13:52;;;;;;;6.80;2.93;;;8.20;99.90;;;;;;5011426;28;20536;-69
2022/02/02 11:16:24;;;;;;;6.27;4.40;;;8.20;99.90;;;;;;5024222;28;20482;-68
2022/02/02 11:18:52;;;;;;;7.70;2.90;;;8.30;99.90;;;;;;5008858;28;20451;-67
2022/02/02 11:21:20;;;;;;;8.87;2.03;;;8.40;99.90;;;;;;5009099;28;20487;-69
2022/02/02 11:23:48;;;;;;;5.73;2.33;;;8.40;99.90;;;;;;5009566;28;20471;-70
2022/02/02 11:26:41;;;;;;;6.33;1.87;;;8.40;99.90;;;;;;5007909;28;20544;-70
2022/02/02 11:29:08;;;;;;;11.67;2.80;;;8.40;99.90;;;;;;5022275;28;20475;-70
2022/02/02 11:31:33;;;;;;;3.10;1.70;;;8.50;99.90;;;;;;5009121;28;20474;-69
2022/02/02 11:34:00;;;;;;;10.13;2.40;;;8.60;99.90;;;;;;5008550;28;20972;-70
2022/02/02 11:36:34;;;;;;;2.87;1.60;;;8.70;99.90;;;;;;5000663;28;20287;-69
2022/02/02 11:39:07;;;;;;;4.83;2.03;;;8.70;99.90;;;;;;5004747;28;20556;-70
2022/02/02 11:41:52;;;;;;;4.03;2.13;;;8.80;99.90;;;;;;5026680;28;20493;-70
2022/02/02 11:44:29;;;;;;;7.27;2.03;;;8.80;99.90;;;;;;5008323;28;20462;-69
2022/02/02 11:50:02;;;;;;;6.43;2.50;;;8.80;99.90;;;;;;5026915;28;20857;-70
2022/02/02 11:52:43;;;;;;;3.47;2.30;;;8.90;99.90;;;;;;4991599;28;20459;-70
2022/02/02 11:55:12;;;;;;;6.77;2.03;;;8.90;99.90;;;;;;5021649;28;20478;-69
2022/02/02 11:58:00;;;;;;;4.50;1.60;;;8.90;99.90;;;;;;5023849;28;20805;-68
2022/02/02 12:00:34;;;;;;;4.47;1.87;;;9.00;99.90;;;;;;4999481;28;20475;-69
2022/02/02 12:11:45;;;;;;;7.20;2.00;;;9.00;99.90;;;;;;4985899;28;20473;-69
2022/02/02 12:27:59;;;;;;;5.53;1.93;;;9.00;99.90;;;;;;5008732;28;20455;-69
2022/02/02 12:47:49;;;;;;;7.43;2.37;;;9.30;99.90;;;;;;5025482;28;20659;-70
2022/02/02 12:53:34;;;;;;;12.67;4.17;;;9.30;99.90;;;;;;5010802;28;20538;-70
2022/02/02 12:56:23;;;;;;;;;;;;;;;;;;;;;
2022/02/02 12:58:48;;;;;;;7.03;1.60;;;9.20;99.90;;;;;;5027542;28;20439;-69
2022/02/02 13:01:19;;;;;;;7.93;2.20;;;9.30;99.90;;;;;;5011131;28;20470;-69
2022/02/02 13:03:46;;;;;;;4.47;2.23;;;9.30;99.90;;;;;;4994368;28;20464;-70
2022/02/02 13:06:18;;;;;;;3.93;1.70;;;9.30;99.90;;;;;;5030581;28;20585;-70
2022/02/02 13:08:49;;;;;;;3.47;1.57;;;9.30;99.90;;;;;;5013044;28;20512;-70
2022/02/02 13:11:30;;;;;;;4.03;1.93;;;9.40;99.90;;;;;;5022104;28;20458;-69
2022/02/02 13:14:00;;;;;;;7.03;3.13;;;9.40;99.90;;;;;;5026523;28;20464;-69
2022/02/02 13:16:27;;;;;;;10.17;5.40;;;9.50;99.90;;;;;;5012794;28;20494;-70
2022/02/02 13:19:00;;;;;;;11.30;4.27;;;9.50;99.90;;;;;;5012489;28;20466;-69
2022/02/02 13:21:31;;;;;;;6.00;2.87;;;9.60;99.90;;;;;;4975356;28;20467;-70
2022/02/02 13:24:12;;;;;;;3.53;2.43;;;9.60;99.90;;;;;;4996791;28;20463;-69
2022/02/02 13:32:20;;;;;;;3.80;1.90;;;9.70;99.90;;;;;;4984115;28;20460;-69
2022/02/02 13:43:06;;;;;;;7.30;2.10;;;9.90;99.90;;;;;;5018164;28;20485;-70
2022/02/02 13:56:13;;;;;;;6.57;2.40;;;10.00;99.90;;;;;;5028077;28;20452;-69
2022/02/02 14:01:21;;;;;;;;;;;;;;;;;;;;;
2022/02/02 14:31:13;;;;;;;11.43;3.13;;;10.10;99.90;;;;;;4950276;28;20454;-69
2022/02/02 14:33:41;;;;;;;8.27;3.13;;;10.10;99.90;;;;;;4999414;28;20520;-70
2022/02/02 14:36:10;;;;;;;11.90;3.40;;;10.00;99.90;;;;;;5011161;28;20455;-70
2022/02/02 14:41:55;;;;;;;11.60;6.80;;;10.00;99.90;;;;;;5002491;28;20523;-69
2022/02/02 14:44:03;;;;;;;12.00;5.77;;;10.00;99.90;;;;;;5005779;28;20475;-69
2022/02/02 14:46:41;;;;;;;15.07;6.67;;;10.00;99.90;;;;;;5026012;28;20453;-70
2022/02/02 14:49:22;;;;;;;25.07;9.93;;;10.00;99.90;;;;;;5004543;28;20514;-70
2022/02/02 15:27:16;;;;;;;6.40;3.10;;;9.80;99.90;;;;;;5019779;28;20455;-69
2022/02/02 15:29:35;;;;;;;7.90;2.97;;;9.80;99.90;;;;;;5018383;28;20487;-69
2022/02/02 15:32:01;;;;;;;4.40;3.07;;;9.80;99.90;;;;;;5009506;28;20463;-68
2022/02/02 15:34:35;;;;;;;7.47;3.60;;;9.70;99.90;;;;;;5025609;28;20516;-69
2022/02/02 15:39:57;;;;;;;7.13;3.97;;;9.70;99.90;;;;;;5009412;28;20455;-69
2022/02/02 15:54:44;;;;;;;14.07;4.20;;;9.70;99.90;;;;;;5010832;28;20443;-70
2022/02/02 15:58:30;;;;;;;6.97;3.90;;;9.60;99.90;;;;;;5011397;28;20562;-69
2022/02/02 16:06:08;;;;;;;7.23;3.67;;;9.60;99.90;;;;;;5023737;28;20456;-70
2022/02/02 16:08:37;;;;;;;4.27;2.70;;;9.50;99.90;;;;;;5002684;28;20477;-69
2022/02/02 16:11:15;;;;;;;4.23;2.77;;;9.50;99.90;;;;;;5003282;28;20444;-69
2022/02/02 16:13:50;;;;;;;9.33;3.27;;;9.50;99.90;;;;;;5005006;28;20804;-69
2022/02/02 16:37:24;;;;;;;13.23;3.67;;;9.30;99.90;;;;;;5009499;28;21001;-70
2022/02/02 16:39:53;;;;;;;10.60;3.30;;;9.20;99.90;;;;;;4997678;28;20470;-70
2022/02/02 16:45:05;;;;;;;8.23;4.00;;;9.20;99.90;;;;;;5023220;28;20464;-69
2022/02/02 16:47:31;;;;;;;2.97;2.53;;;9.20;99.90;;;;;;5012337;28;20459;-69
2022/02/02 16:49:56;;;;;;;6.60;2.40;;;9.20;99.90;;;;;;5024255;28;21183;-69
2022/02/02 16:52:25;;;;;;;9.43;4.10;;;9.10;99.90;;;;;;5009586;28;20224;-69
2022/02/02 16:54:53;;;;;;;10.57;3.53;;;9.10;99.90;;;;;;5010595;28;20208;-70
2022/02/02 16:57:34;;;;;;;6.17;3.03;;;9.10;99.90;;;;;;5010484;28;20536;-70
2022/02/02 17:34:52;;;;;;;13.43;3.97;;;9.00;99.90;;;;;;5031916;28;20771;-69
2022/02/02 17:40:02;;;;;;;13.70;6.40;;;9.00;99.90;;;;;;5014663;28;20459;-68
2022/02/02 18:00:08;;;;;;;21.17;10.83;;;8.80;99.90;;;;;;4964802;28;20825;-68
2022/02/02 18:20:44;;;;;;;10.67;6.30;;;8.80;99.90;;;;;;5025100;28;20451;-69
2022/02/02 18:26:03;;;;;;;10.40;6.90;;;8.70;99.90;;;;;;5026476;28;20443;-69
2022/02/02 18:28:39;;;;;;;10.37;6.83;;;8.70;99.90;;;;;;5011741;28;20475;-69
2022/02/02 18:31:59;;;;;;;10.50;6.60;;;8.70;99.90;;;;;;5014144;28;20455;-70
2022/02/02 18:33:57;;;;;;;;;;;;;;;;;;;;;
2022/02/02 18:44:49;;;;;;;10.00;5.20;;;8.60;99.90;;;;;;5012292;28;20451;-69
2022/02/02 19:52:41;;;;;;;16.53;6.90;;;8.20;99.90;;;;;;5009111;28;20461;-69
2022/02/02 19:55:26;;;;;;;;;;;;;;;;;;;;;
2022/02/02 20:03:38;;;;;;;30.70;17.50;;;8.20;99.90;;;;;;5005756;28;20466;-69
2022/02/02 20:06:07;;;;;;;15.30;8.83;;;8.20;99.90;;;;;;5021929;28;20530;-69
2022/02/02 20:11:07;;;;;;;13.73;6.33;;;8.20;99.90;;;;;;5028888;28;20464;-69
2022/02/02 20:13:35;;;;;;;12.33;7.00;;;8.20;99.90;;;;;;5025393;28;20468;-69
2022/02/02 20:16:02;;;;;;;8.53;5.53;;;8.20;99.90;;;;;;5023233;28;20448;-70
2022/02/02 20:18:30;;;;;;;11.83;5.33;;;8.20;99.90;;;;;;5009529;28;20463;-70
2022/02/02 20:20:58;;;;;;;11.07;5.27;;;8.10;99.90;;;;;;5006811;28;20457;-69
2022/02/02 20:23:24;;;;;;;6.43;4.77;;;8.20;99.90;;;;;;5009427;28;20509;-70
2022/02/02 20:25:54;;;;;;;7.97;5.13;;;8.20;99.90;;;;;;5010086;28;20446;-69
2022/02/02 20:28:20;;;;;;;8.23;5.13;;;8.20;99.90;;;;;;5010793;28;20235;-70
2022/02/02 20:30:45;;;;;;;9.40;7.00;;;8.20;99.90;;;;;;5028672;28;20445;-69
2022/02/02 20:33:11;;;;;;;11.83;7.87;;;8.20;99.90;;;;;;5018697;28;20632;-69
2022/02/02 20:35:37;;;;;;;8.33;6.77;;;8.10;99.90;;;;;;5010662;28;20216;-70
2022/02/02 20:38:03;;;;;;;10.47;6.93;;;8.10;99.90;;;;;;5007345;28;20562;-70
2022/02/02 20:40:29;;;;;;;10.40;6.93;;;8.10;99.90;;;;;;5006506;28;20263;-70
2022/02/02 21:04:46;;;;;;;11.50;6.80;;;8.00;99.90;;;;;;5012971;28;20471;-69
2022/02/02 21:09:53;;;;;;;;;;;;;;;;;;;;;
2022/02/02 21:14:47;;;;;;;13.80;7.57;;;8.00;99.90;;;;;;5019370;28;20451;-69
2022/02/02 21:17:22;;;;;;;11.63;6.77;;;7.90;99.90;;;;;;5030466;28;20228;-69
2022/02/02 21:19:55;;;;;;;10.17;6.57;;;7.90;99.90;;;;;;5014427;28;20508;-68
2022/02/02 21:22:23;;;;;;;10.90;6.30;;;7.90;99.90;;;;;;5012692;28;20447;-69
2022/02/02 21:27:26;;;;;;;9.40;5.53;;;7.90;99.90;;;;;;5031514;28;20462;-69
2022/02/02 21:29:52;;;;;;;13.50;5.77;;;8.00;99.90;;;;;;5013703;28;20532;-69
2022/02/02 21:32:19;;;;;;;10.57;6.00;;;8.00;99.90;;;;;;5030625;28;20460;-70
2022/02/02 21:34:46;;;;;;;12.33;6.57;;;8.00;99.90;;;;;;5030929;28;20458;-69
2022/02/02 21:37:11;;;;;;;10.03;6.37;;;8.00;99.90;;;;;;5025369;28;20992;-68
2022/02/02 21:39:44;;;;;;;9.40;5.97;;;8.00;99.90;;;;;;5012351;28;20459;-70
2022/02/02 21:42:13;;;;;;;13.80;6.43;;;7.90;99.90;;;;;;5010206;28;20224;-69
2022/02/02 21:44:41;;;;;;;8.93;5.80;;;7.90;99.90;;;;;;5023475;28;20452;-69
2022/02/02 21:47:10;;;;;;;10.20;5.60;;;7.90;99.90;;;;;;5028672;28;20472;-70
2022/02/02 21:49:36;;;;;;;10.10;6.10;;;7.90;99.90;;;;;;4994208;28;20471;-69
2022/02/02 21:52:06;;;;;;;6.93;5.03;;;7.90;99.90;;;;;;5013208;28;20530;-69
2022/02/02 21:54:31;;;;;;;15.87;6.80;;;7.90;99.90;;;;;;5030904;28;20610;-69
2022/02/02 21:56:59;;;;;;;11.80;6.07;;;7.90;99.90;;;;;;5030354;28;20486;-69
2022/02/02 21:59:25;;;;;;;14.53;5.67;;;7.90;99.90;;;;;;5013851;28;20254;-69
2022/02/02 22:01:51;;;;;;;11.00;5.70;;;7.90;99.90;;;;;;5028874;28;20502;-69
2022/02/02 22:04:16;;;;;;;8.87;5.40;;;7.90;99.90;;;;;;5011918;28;20490;-70
2022/02/02 22:06:42;;;;;;;8.67;5.53;;;7.90;99.90;;;;;;5013233;28;20221;-70
2022/02/02 22:09:08;;;;;;;12.03;5.07;;;7.90;99.90;;;;;;5013620;28;20748;-69
2022/02/02 22:11:34;;;;;;;10.83;6.33;;;7.90;99.90;;;;;;5012827;28;20216;-69
2022/02/02 22:14:05;;;;;;;9.13;5.30;;;7.90;99.90;;;;;;5014107;28;20458;-69
2022/02/02 22:16:30;;;;;;;12.30;5.77;;;7.90;99.90;;;;;;5013350;28;20255;-69
2022/02/02 22:18:57;;;;;;;33.90;13.37;;;7.90;99.90;;;;;;4997726;28;20479;-68
2022/02/02 22:21:25;;;;;;;19.50;9.70;;;7.90;99.90;;;;;;5013052;28;20465;-69
2022/02/02 22:23:51;;;;;;;11.00;5.70;;;7.90;99.90;;;;;;5013581;28;20463;-69
2022/02/02 22:26:19;;;;;;;10.47;5.70;;;7.90;99.90;;;;;;5013705;28;20467;-69
2022/02/02 22:28:45;;;;;;;10.37;5.67;;;7.90;99.90;;;;;;5013052;28;20463;-69
2022/02/02 22:31:11;;;;;;;15.60;6.80;;;7.90;99.90;;;;;;5013290;28;20456;-68
2022/02/02 22:33:37;;;;;;;11.70;6.13;;;7.90;99.90;;;;;;5030634;28;20459;-69
2022/02/02 22:36:03;;;;;;;11.87;7.50;;;7.90;99.90;;;;;;4997220;28;20448;-69
2022/02/02 22:38:29;;;;;;;12.57;7.90;;;7.90;99.90;;;;;;4996447;28;20227;-70
2022/02/02 22:40:57;;;;;;;17.00;9.97;;;7.90;99.90;;;;;;5013423;28;20801;-68
2022/02/02 22:43:23;;;;;;;15.20;9.00;;;7.90;99.90;;;;;;4996231;28;20455;-69
2022/02/02 22:45:51;;;;;;;18.37;10.97;;;7.90;99.90;;;;;;5012985;28;20454;-70
2022/02/02 22:48:21;;;;;;;17.40;10.27;;;7.90;99.90;;;;;;5013333;28;20554;-70
2022/02/02 22:50:47;;;;;;;13.77;8.73;;;7.90;99.90;;;;;;5013270;28;20452;-70
2022/02/02 22:53:13;;;;;;;16.27;10.27;;;7.90;99.90;;;;;;5030105;28;20460;-70
2022/02/02 22:55:39;;;;;;;19.87;12.33;;;7.90;99.90;;;;;;5029563;28;20447;-72
2022/02/02 22:58:05;;;;;;;20.00;13.10;;;7.90;99.90;;;;;;4995558;28;20538;-70
2022/02/02 23:00:37;;;;;;;17.80;9.97;;;7.90;99.90;;;;;;5011892;28;20244;-69
2022/02/02 23:03:09;;;;;;;19.50;11.30;;;7.90;99.90;;;;;;5008399;28;20462;-70
2022/02/02 23:05:39;;;;;;;21.00;11.87;;;7.90;99.90;;;;;;5029926;28;20467;-70
2022/02/02 23:08:08;;;;;;;24.40;12.87;;;7.90;99.90;;;;;;5013015;28;20486;-70
2022/02/02 23:10:35;;;;;;;22.87;14.73;;;7.90;99.90;;;;;;4990047;28;20997;-68
2022/02/02 23:13:02;;;;;;;22.30;13.00;;;7.90;99.90;;;;;;5006690;28;20514;-71
2022/02/02 23:15:40;;;;;;;21.70;12.90;;;7.90;99.90;;;;;;5003999;28;20443;-70
2022/02/02 23:18:16;;;;;;;16.70;11.80;;;7.90;99.90;;;;;;5022500;28;20455;-72
2022/02/02 23:20:46;;;;;;;20.27;11.70;;;7.90;99.90;;;;;;5007191;28;20518;-71
2022/02/02 23:23:16;;;;;;;18.80;10.67;;;7.90;99.90;;;;;;5010792;28;20469;-71
2022/02/02 23:25:43;;;;;;;17.80;8.60;;;7.90;99.90;;;;;;5013634;28;20472;-71
2022/02/02 23:28:11;;;;;;;15.20;8.87;;;7.90;99.90;;;;;;5004766;28;20480;-70
2022/02/02 23:30:40;;;;;;;11.00;7.50;;;7.90;99.90;;;;;;5004334;28;20873;-68
2022/02/02 23:33:06;;;;;;;14.77;6.57;;;7.90;99.90;;;;;;5003832;28;20476;-71
2022/02/02 23:35:32;;;;;;;9.67;6.57;;;7.90;99.90;;;;;;4994278;28;20472;-71
2022/02/02 23:37:59;;;;;;;9.37;6.00;;;7.90;99.90;;;;;;5025675;28;20716;-70
2022/02/02 23:40:34;;;;;;;6.90;4.90;;;7.90;99.90;;;;;;5003098;28;20228;-72
2022/02/02 23:43:00;;;;;;;7.97;4.57;;;7.90;99.90;;;;;;5024487;28;20459;-70
2022/02/02 23:45:26;;;;;;;5.80;4.20;;;7.90;99.90;;;;;;5018536;28;20539;-71
2022/02/02 23:47:56;;;;;;;6.00;4.07;;;7.90;99.90;;;;;;5009840;28;20530;-68
2022/02/02 23:50:22;;;;;;;7.63;3.53;;;7.90;99.90;;;;;;5011608;28;20217;-71
2022/02/02 23:52:53;;;;;;;5.10;3.50;;;7.90;99.90;;;;;;4995623;28;20467;-70
2022/02/02 23:55:29;;;;;;;6.10;3.13;;;7.90;99.90;;;;;;5022680;28;20451;-71
2022/02/02 23:58:07;;;;;;;3.20;2.60;;;7.90;99.90;;;;;;5010974;28;20453;-70
